Time;durP1;ratioP1;P1;durP2;ratioP2;P2;SDS_P1;SDS_P2;PMS_P1;PMS_P2;Temp;Humidity;BMP_temperature;BMP_pressure;BME280_temperature;BME280_humidity;BME280_pressure;Samples;Min_cycle;Max_cycle;Signal;HPM_P1;HPM_P2
2024/01/14 00:41:00;;;;;;;;;;;;;;;;;;;;;
2024/01/14 00:55:53;;;;;;;34.60;15.53;;;;;;;2.01;64.01;100711.09;4696280;30;20223;-77
2024/01/14 00:58:51;;;;;;;36.00;15.57;;;;;;;2.05;64.11;100720.44;4655797;30;20245;-77
2024/01/14 01:06:38;;;;;;;40.33;16.50;;;;;;;2.17;63.66;100711.91;4536610;31;20318;-76
2024/01/14 01:32:00;;;;;;;37.53;16.00;;;;;;;2.13;64.22;100694.69;4579879;31;20239;-76
2024/01/14 01:43:02;;;;;;;41.97;16.73;;;;;;;2.09;64.57;100687.13;4598292;31;20244;-76
2024/01/14 02:08:53;;;;;;;35.80;15.20;;;;;;;2.02;65.47;100676.19;4615472;31;20220;-77
2024/01/14 05:19:47;;;;;;;51.47;17.90;;;;;;;0.94;69.73;100553.44;4853147;29;20249;-77
2024/01/14 06:02:03;;;;;;;;;;;;;;;;;;;;;
2024/01/14 06:05:46;;;;;;;49.63;16.13;;;;;;;0.49;70.48;100509.81;4798440;29;20231;-79
2024/01/14 08:27:01;;;;;;;34.23;12.27;;;;;;;0.24;70.39;100440.72;4786934;29;20211;-72
2024/01/14 08:30:19;;;;;;;40.77;13.63;;;;;;;0.50;70.12;100435.84;4893770;29;20213;-65
2024/01/14 08:32:57;;;;;;;38.60;13.10;;;;;;;0.71;69.57;100437.22;4919837;29;20218;-66
2024/01/14 08:35:33;;;;;;;39.80;14.03;;;;;;;0.82;68.62;100439.25;4926929;28;20235;-66
2024/01/14 08:38:24;;;;;;;;;;;;;;;;;;;;;
2024/01/14 08:41:04;;;;;;;44.58;22.88;;;;;;;1.01;68.22;100445.94;5020927;28;20484;-65
2024/01/14 08:43:33;;;;;;;40.73;14.17;;;;;;;0.95;68.15;100450.69;5019111;28;20617;-65
2024/01/14 08:46:13;;;;;;;43.27;15.33;;;;;;;0.84;67.83;100447.84;5018537;28;20219;-66
2024/01/14 08:48:59;;;;;;;39.77;14.10;;;;;;;0.88;68.17;100455.38;5020510;28;20221;-66
2024/01/14 08:51:30;;;;;;;33.43;12.63;;;;;;;0.89;67.99;100446.63;5021212;28;20236;-66
2024/01/14 08:57:14;;;;;;;35.50;13.33;;;;;;;0.82;68.32;100441.84;5023239;28;20219;-65
2024/01/14 08:59:57;;;;;;;38.73;13.43;;;;;;;0.72;68.31;100450.19;5019042;28;20215;-65
2024/01/14 09:02:52;;;;;;;35.60;12.77;;;;;;;0.72;68.70;100439.75;5009719;28;20243;-65
2024/01/14 09:05:26;;;;;;;36.93;13.87;;;;;;;0.70;68.60;100427.75;5015723;28;20271;-66
2024/01/14 09:08:01;;;;;;;38.27;12.93;;;;;;;0.69;68.49;100434.72;5017465;28;20197;-66
2024/01/14 09:13:55;;;;;;;34.93;12.77;;;;;;;0.48;69.26;100419.41;5007107;28;20705;-66
2024/01/14 09:17:20;;;;;;;42.93;13.60;;;;;;;0.54;69.10;100416.47;5012539;28;20320;-65
2024/01/14 09:22:57;;;;;;;35.70;12.60;;;;;;;0.57;68.80;100431.94;5017297;28;20237;-65
2024/01/14 09:28:28;;;;;;;42.00;13.70;;;;;;;0.69;68.85;100426.06;5008438;28;20594;-65
2024/01/14 09:31:22;;;;;;;38.53;13.40;;;;;;;0.59;68.95;100427.50;5019132;28;20252;-65
2024/01/14 09:34:06;;;;;;;37.97;13.20;;;;;;;0.76;68.71;100422.16;5019252;28;20218;-65
2024/01/14 09:39:42;;;;;;;41.37;13.53;;;;;;;0.83;68.25;100426.09;5015534;28;20252;-65
2024/01/14 09:42:26;;;;;;;39.00;14.17;;;;;;;0.85;67.83;100419.03;5018898;28;20744;-65
2024/01/14 09:45:26;;;;;;;40.30;14.27;;;;;;;0.84;68.06;100422.56;4964818;28;20238;-67
2024/01/14 09:48:10;;;;;;;32.57;13.20;;;;;;;0.92;67.78;100419.53;5017368;28;20219;-66
2024/01/14 09:50:42;;;;;;;39.80;14.40;;;;;;;0.98;67.76;100404.34;5019527;28;20205;-67
2024/01/14 09:53:23;;;;;;;35.77;12.23;;;;;;;0.92;67.86;100409.06;5015056;28;20197;-66
2024/01/14 09:55:53;;;;;;;39.63;13.60;;;;;;;0.83;67.90;100410.44;5016533;28;20200;-66
2024/01/14 09:58:28;;;;;;;44.00;13.37;;;;;;;0.73;68.45;100414.50;5018054;28;20208;-67
2024/01/14 10:01:07;;;;;;;38.97;13.27;;;;;;;0.62;68.45;100406.44;5013922;28;20216;-66
2024/01/14 10:03:45;;;;;;;32.60;12.10;;;;;;;0.56;68.88;100406.78;5016933;28;20344;-65
2024/01/14 10:06:37;;;;;;;32.50;12.40;;;;;;;0.47;69.11;100402.94;5017570;28;20207;-65
2024/01/14 10:15:54;;;;;;;34.03;12.63;;;;;;;0.70;69.24;100401.66;4952946;28;20262;-66
2024/01/14 10:18:48;;;;;;;34.80;13.33;;;;;;;0.83;68.83;100402.59;4956516;28;20213;-65
2024/01/14 10:21:23;;;;;;;35.70;12.30;;;;;;;1.01;68.25;100396.31;4952259;28;20222;-65
2024/01/14 10:23:57;;;;;;;36.67;12.53;;;;;;;0.99;67.97;100390.34;4954956;28;20226;-67
2024/01/14 10:26:33;;;;;;;33.17;12.70;;;;;;;0.93;67.91;100388.09;4956518;28;20762;-67
2024/01/14 10:29:11;;;;;;;36.00;13.47;;;;;;;1.00;67.82;100381.59;4959532;28;20221;-68
2024/01/14 10:31:44;;;;;;;32.53;11.80;;;;;;;1.02;67.80;100374.50;4955188;28;20222;-67
2024/01/14 10:34:30;;;;;;;35.53;13.47;;;;;;;1.08;67.72;100368.91;4944727;28;20207;-68
2024/01/14 10:37:07;;;;;;;37.77;12.50;;;;;;;1.13;67.36;100363.44;4954499;28;20218;-67
2024/01/14 10:39:49;;;;;;;36.00;12.87;;;;;;;1.17;67.08;100346.63;4954532;28;20203;-66
2024/01/14 10:42:23;;;;;;;33.87;12.77;;;;;;;1.31;66.75;100348.44;4956448;28;20285;-66
2024/01/14 10:44:58;;;;;;;36.10;12.53;;;;;;;1.30;66.40;100337.16;4958066;28;20202;-66
2024/01/14 10:48:30;;;;;;;31.93;12.30;;;;;;;1.29;66.64;100345.06;5018026;28;20216;-68
2024/01/14 10:51:08;;;;;;;31.17;12.20;;;;;;;1.33;66.52;100336.94;5015068;28;20612;-67
2024/01/14 10:53:51;;;;;;;39.67;12.57;;;;;;;1.37;66.07;100337.59;5019483;28;20220;-69
2024/01/14 10:56:40;;;;;;;33.57;13.33;;;;;;;1.23;66.52;100335.00;5016893;28;21068;-66
2024/01/14 10:59:16;;;;;;;36.47;12.40;;;;;;;1.39;66.59;100346.22;5021788;28;20197;-67
2024/01/14 11:02:00;;;;;;;33.87;13.00;;;;;;;1.36;66.35;100338.53;5020184;28;20256;-67
2024/01/14 11:04:33;;;;;;;36.43;13.00;;;;;;;1.22;66.58;100330.72;5018452;28;20211;-67
2024/01/14 11:07:13;;;;;;;;;;;;;;;;;;;;;
2024/01/14 11:09:48;;;;;;;37.07;13.20;;;;;;;0.96;67.94;100330.50;5010765;28;20258;-66
2024/01/14 11:12:29;;;;;;;32.13;13.37;;;;;;;1.01;68.13;100323.22;5017274;28;21130;-66
2024/01/14 11:15:16;;;;;;;39.03;12.80;;;;;;;1.12;67.77;100318.19;5019652;28;20212;-67
2024/01/14 11:17:56;;;;;;;29.53;11.43;;;;;;;1.22;67.49;100309.81;5019792;28;20674;-66
2024/01/14 11:20:31;;;;;;;36.77;11.97;;;;;;;1.25;67.47;100314.81;5023188;28;20314;-65
2024/01/14 11:23:25;;;;;;;33.97;12.20;;;;;;;1.21;67.18;100308.13;5018882;28;20240;-67
2024/01/14 11:25:59;;;;;;;32.87;12.40;;;;;;;1.23;66.88;100301.06;5015108;28;20205;-66
2024/01/14 11:28:29;;;;;;;36.83;12.70;;;;;;;1.16;67.07;100297.94;5016302;28;20300;-67
2024/01/14 11:31:03;;;;;;;27.47;12.37;;;;;;;1.27;67.06;100292.91;5021151;28;20216;-66
2024/01/14 11:33:40;;;;;;;34.20;14.07;;;;;;;1.48;66.34;100285.53;5018104;28;20200;-66
2024/01/14 11:36:11;;;;;;;34.63;12.87;;;;;;;1.47;66.06;100271.63;5018837;28;20220;-65
2024/01/14 11:38:57;;;;;;;33.47;12.97;;;;;;;1.45;66.19;100264.81;5019681;28;20876;-65
2024/01/14 11:41:30;;;;;;;35.67;13.87;;;;;;;1.49;66.05;100253.25;5017857;28;20287;-66
2024/01/14 11:44:03;;;;;;;35.87;12.90;;;;;;;1.53;66.04;100244.28;5016024;28;20370;-65
2024/01/14 11:46:40;;;;;;;33.27;13.40;;;;;;;1.63;65.93;100248.00;5020536;28;20232;-65
2024/01/14 11:49:17;;;;;;;32.97;12.20;;;;;;;1.66;65.31;100244.34;5016595;28;20280;-66
2024/01/14 11:51:53;;;;;;;30.47;12.13;;;;;;;1.74;65.53;100232.47;5017890;28;20260;-65
2024/01/14 11:54:24;;;;;;;31.70;11.93;;;;;;;1.83;65.05;100226.66;5017281;28;20283;-65
2024/01/14 11:56:56;;;;;;;30.60;11.57;;;;;;;1.83;64.93;100213.59;5017813;28;20201;-65
2024/01/14 11:59:24;;;;;;;37.23;12.90;;;;;;;1.88;64.97;100216.72;5017974;28;20216;-65
2024/01/14 12:02:16;;;;;;;35.77;12.60;;;;;;;1.98;64.41;100208.28;5015952;28;20211;-66
2024/01/14 12:04:45;;;;;;;37.90;13.43;;;;;;;1.88;65.80;100210.66;5013262;28;20216;-68
2024/01/14 12:07:35;;;;;;;36.90;12.87;;;;;;;1.95;66.47;100200.63;5017936;28;20235;-67
2024/01/14 12:10:04;;;;;;;33.23;13.13;;;;;;;2.03;65.22;100185.28;5019350;28;20560;-65
2024/01/14 12:12:37;;;;;;;29.87;11.87;;;;;;;1.98;64.70;100179.53;5020510;28;20771;-64
2024/01/14 12:15:06;;;;;;;37.13;14.57;;;;;;;2.09;64.38;100175.28;5021245;28;20201;-65
2024/01/14 12:17:36;;;;;;;34.50;13.83;;;;;;;2.12;64.03;100166.34;5018834;28;20213;-65
2024/01/14 12:20:08;;;;;;;37.23;13.23;;;;;;;2.09;64.12;100162.19;5021384;28;20241;-65
2024/01/14 12:22:38;;;;;;;31.27;12.30;;;;;;;2.00;63.96;100149.72;5018664;28;20229;-65
2024/01/14 12:25:09;;;;;;;31.77;12.43;;;;;;;2.07;63.89;100151.00;5020358;28;20718;-63
2024/01/14 12:27:38;;;;;;;29.67;11.77;;;;;;;2.06;63.93;100151.09;5018588;28;20958;-65
2024/01/14 12:30:08;;;;;;;34.53;13.60;;;;;;;2.14;63.86;100138.31;5018466;28;20209;-64
2024/01/14 12:32:38;;;;;;;39.37;13.57;;;;;;;2.06;63.83;100138.00;5016397;28;20206;-64
2024/01/14 12:35:07;;;;;;;33.80;13.07;;;;;;;2.09;64.11;100133.41;5015750;28;20205;-63
2024/01/14 12:37:35;;;;;;;31.23;12.73;;;;;;;2.18;63.88;100121.50;5017143;28;20541;-64
2024/01/14 12:40:04;;;;;;;30.33;11.73;;;;;;;2.15;63.74;100121.69;5020168;28;20639;-64
2024/01/14 12:42:32;;;;;;;34.17;12.67;;;;;;;2.14;63.87;100114.78;5020207;28;20728;-64
2024/01/14 12:45:09;;;;;;;31.63;12.37;;;;;;;2.25;63.57;100092.19;5019604;28;20547;-65
2024/01/14 12:47:40;;;;;;;30.43;12.67;;;;;;;2.28;63.13;100101.63;5018898;28;20219;-64
2024/01/14 12:50:09;;;;;;;26.90;11.70;;;;;;;2.21;63.42;100100.34;5021128;28;21076;-64
2024/01/14 12:52:37;;;;;;;34.13;12.77;;;;;;;2.15;63.73;100095.53;5021676;28;20216;-65
2024/01/14 12:55:06;;;;;;;34.07;12.57;;;;;;;2.17;63.98;100093.66;5016541;28;20209;-64
2024/01/14 12:57:34;;;;;;;34.47;13.03;;;;;;;2.29;63.61;100079.72;5018695;28;20220;-70
2024/01/14 13:00:02;;;;;;;32.63;11.93;;;;;;;2.22;63.29;100081.09;5016723;28;20264;-64
2024/01/14 13:02:31;;;;;;;32.23;11.43;;;;;;;2.26;63.44;100077.34;5017154;28;20241;-64
2024/01/14 13:05:01;;;;;;;33.23;11.07;;;;;;;2.36;63.16;100057.47;5016157;28;20320;-64
2024/01/14 13:07:29;;;;;;;34.67;13.23;;;;;;;2.49;62.88;100068.72;5017173;28;20223;-64
2024/01/14 13:09:58;;;;;;;34.37;12.33;;;;;;;2.50;62.53;100059.09;5020743;28;20267;-64
2024/01/14 13:12:26;;;;;;;31.60;11.70;;;;;;;2.47;62.50;100057.53;5019144;28;20209;-63
2024/01/14 13:14:54;;;;;;;30.50;11.57;;;;;;;2.49;62.48;100047.78;5017239;28;20211;-64
2024/01/14 13:17:23;;;;;;;33.43;12.20;;;;;;;2.35;62.32;100045.31;5019353;28;20209;-64
2024/01/14 13:19:51;;;;;;;29.43;11.07;;;;;;;2.17;62.78;100036.97;5018537;28;21110;-63
2024/01/14 13:22:21;;;;;;;33.83;12.27;;;;;;;2.07;63.08;100035.06;5016937;28;20295;-63
2024/01/14 13:24:50;;;;;;;38.37;14.27;;;;;;;1.89;63.75;100027.53;5018628;28;20230;-64
2024/01/14 13:27:18;;;;;;;38.03;13.67;;;;;;;1.81;64.18;100019.38;5018251;28;20212;-64
2024/01/14 13:29:47;;;;;;;36.57;13.73;;;;;;;1.80;64.24;100015.09;5019418;28;20649;-62
2024/01/14 13:32:16;;;;;;;37.13;13.93;;;;;;;1.78;64.31;100030.03;5015247;28;20227;-63
2024/01/14 13:34:44;;;;;;;40.57;13.83;;;;;;;1.80;64.35;100022.09;5016962;28;20613;-63
2024/01/14 13:37:13;;;;;;;42.60;14.60;;;;;;;1.69;64.51;100025.41;5014001;28;20213;-63
2024/01/14 13:39:44;;;;;;;44.27;15.07;;;;;;;1.52;64.65;100018.69;5016433;28;20252;-62
2024/01/14 13:42:12;;;;;;;38.90;14.00;;;;;;;1.47;65.06;100015.56;5018990;28;20314;-66
2024/01/14 13:44:41;;;;;;;37.40;13.50;;;;;;;1.48;65.34;100006.78;5017753;28;20233;-65
2024/01/14 13:47:09;;;;;;;40.97;14.17;;;;;;;1.54;65.29;100009.94;5018472;28;20227;-64
2024/01/14 13:49:38;;;;;;;39.03;13.60;;;;;;;1.49;65.22;100005.03;5016010;28;20217;-64
2024/01/14 13:52:06;;;;;;;47.13;15.77;;;;;;;1.52;64.91;100003.03;5015977;28;20205;-65
2024/01/14 13:54:34;;;;;;;40.23;13.70;;;;;;;1.45;65.16;100008.75;5015353;28;20595;-65
2024/01/14 13:57:04;;;;;;;40.17;13.30;;;;;;;1.35;65.28;99994.63;5018916;28;20221;-66
2024/01/14 13:59:33;;;;;;;37.50;13.93;;;;;;;1.23;65.87;100000.69;5017782;28;20209;-66
2024/01/14 14:02:02;;;;;;;37.20;14.23;;;;;;;1.26;66.21;99987.41;5017561;28;20225;-67
2024/01/14 14:04:30;;;;;;;39.00;13.00;;;;;;;1.38;65.83;99994.44;5017214;28;20331;-66
2024/01/14 14:06:59;;;;;;;41.30;13.73;;;;;;;1.33;65.93;99986.88;5014908;28;20217;-66
2024/01/14 14:09:27;;;;;;;43.27;13.90;;;;;;;1.33;65.96;99980.81;5016693;28;20208;-66
2024/01/14 14:11:58;;;;;;;43.03;14.50;;;;;;;1.26;65.72;99974.34;5018186;28;20286;-66
2024/01/14 14:14:28;;;;;;;40.57;13.97;;;;;;;1.16;66.09;99975.88;5018007;28;20280;-64
2024/01/14 14:16:56;;;;;;;41.23;13.90;;;;;;;1.12;65.99;99973.47;5021815;28;20283;-65
2024/01/14 14:19:24;;;;;;;36.10;13.80;;;;;;;1.12;66.15;99967.41;5017560;28;20204;-65
2024/01/14 14:21:55;;;;;;;37.57;13.53;;;;;;;1.07;66.35;99967.72;5016305;28;20219;-65
2024/01/14 14:24:31;;;;;;;37.63;13.67;;;;;;;1.13;66.33;99959.50;5014207;28;21688;-65
2024/01/14 14:27:00;;;;;;;38.30;13.33;;;;;;;1.26;65.93;99962.13;5020533;28;20201;-64
2024/01/14 14:29:30;;;;;;;38.93;13.50;;;;;;;1.18;65.43;99955.72;5015245;28;20213;-64
2024/01/14 14:31:58;;;;;;;41.63;13.27;;;;;;;1.08;66.08;99958.09;5016862;28;20216;-63
2024/01/14 14:34:26;;;;;;;39.07;13.77;;;;;;;1.13;65.97;99963.88;5016582;28;20205;-65
2024/01/14 14:36:55;;;;;;;43.90;13.73;;;;;;;1.09;66.05;99958.00;5016196;28;20201;-66
2024/01/14 14:39:24;;;;;;;37.93;13.83;;;;;;;1.23;65.83;99951.84;5014974;28;20212;-63
2024/01/14 14:41:53;;;;;;;39.93;13.40;;;;;;;1.28;65.45;99943.72;5013552;28;20264;-64
2024/01/14 14:44:21;;;;;;;36.37;12.73;;;;;;;1.29;64.79;99942.81;5020730;28;20602;-64
2024/01/14 14:46:50;;;;;;;45.20;15.63;;;;;;;1.13;65.15;99943.81;5018696;28;20212;-63
2024/01/14 14:49:18;;;;;;;45.00;13.33;;;;;;;1.08;65.42;99938.06;5018199;28;20209;-64
2024/01/14 14:51:47;;;;;;;45.03;14.73;;;;;;;0.97;65.50;99932.69;5013641;28;20301;-63
2024/01/14 14:54:15;;;;;;;48.17;14.63;;;;;;;1.07;65.62;99927.69;5014977;28;20216;-63
2024/01/14 14:56:43;;;;;;;42.93;14.37;;;;;;;1.08;65.28;99918.94;5016358;28;20206;-64
2024/01/14 14:59:11;;;;;;;38.37;13.73;;;;;;;1.10;65.34;99922.28;5015270;28;20206;-64
2024/01/14 15:01:39;;;;;;;39.67;13.37;;;;;;;1.13;65.13;99917.72;5014728;28;20633;-64
2024/01/14 15:04:13;;;;;;;44.20;14.70;;;;;;;1.18;64.98;99919.16;5014666;28;20600;-64
2024/01/14 15:06:44;;;;;;;41.87;13.73;;;;;;;1.20;65.05;99912.06;5013992;28;20684;-64
2024/01/14 15:09:14;;;;;;;44.67;14.57;;;;;;;1.30;64.73;99915.75;5013631;28;20292;-63
2024/01/14 15:11:43;;;;;;;39.10;13.83;;;;;;;1.35;64.70;99911.03;5017302;28;20328;-64
2024/01/14 15:14:11;;;;;;;43.67;15.83;;;;;;;1.27;64.29;99905.50;5015190;28;21002;-63
2024/01/14 15:16:41;;;;;;;43.00;14.43;;;;;;;1.16;64.21;99900.13;5017560;28;20320;-64
2024/01/14 15:19:09;;;;;;;44.27;15.37;;;;;;;0.97;64.64;99901.34;5016374;28;20221;-64
2024/01/14 15:21:39;;;;;;;48.50;15.70;;;;;;;0.94;65.01;99898.97;5018335;28;20244;-63
2024/01/14 15:24:09;;;;;;;49.87;16.33;;;;;;;0.88;65.15;99901.97;5014570;28;20276;-63
2024/01/14 15:26:37;;;;;;;48.00;16.53;;;;;;;0.82;65.17;99902.38;5019210;28;20672;-63
2024/01/14 15:29:06;;;;;;;48.77;15.90;;;;;;;0.78;65.55;99900.91;5019602;28;20241;-64
2024/01/14 15:31:34;;;;;;;56.03;17.23;;;;;;;0.84;65.42;99897.91;5016086;28;20658;-64
2024/01/14 15:34:03;;;;;;;43.40;16.20;;;;;;;0.83;65.32;99904.06;5020754;28;20291;-64
2024/01/14 15:36:31;;;;;;;47.60;17.00;;;;;;;0.81;65.43;99902.47;5021052;28;20209;-64
2024/01/14 15:39:01;;;;;;;46.00;15.90;;;;;;;0.90;65.33;99894.03;5020490;28;20293;-64
2024/01/14 15:41:32;;;;;;;47.37;15.37;;;;;;;1.01;64.97;99881.97;5019771;28;20223;-64
2024/01/14 15:44:01;;;;;;;43.43;16.30;;;;;;;1.08;64.59;99872.78;5020025;28;20680;-64
2024/01/14 15:46:31;;;;;;;51.77;17.60;;;;;;;1.03;64.64;99879.25;5017542;28;20779;-64
2024/01/14 15:48:59;;;;;;;47.07;15.97;;;;;;;1.05;64.65;99875.59;5019663;28;20225;-64
2024/01/14 15:51:31;;;;;;;46.87;16.37;;;;;;;1.03;64.56;99876.63;5019079;28;20218;-64
2024/01/14 15:54:01;;;;;;;46.83;16.27;;;;;;;1.02;64.74;99867.97;5017776;28;20221;-63
2024/01/14 15:56:32;;;;;;;51.23;16.80;;;;;;;1.02;64.84;99861.91;5021649;28;20220;-64
2024/01/14 15:59:00;;;;;;;47.30;17.50;;;;;;;1.16;64.81;99863.59;5018430;28;20562;-64
2024/01/14 16:01:29;;;;;;;54.77;17.47;;;;;;;1.27;64.28;99867.16;5019126;28;20209;-64
2024/01/14 16:03:59;;;;;;;49.90;16.87;;;;;;;1.17;64.14;99858.25;5017808;28;20225;-65
2024/01/14 16:06:28;;;;;;;54.73;17.50;;;;;;;1.18;64.41;99854.72;5022756;28;20565;-64
2024/01/14 16:08:56;;;;;;;48.17;17.60;;;;;;;1.31;64.20;99858.19;5019803;28;20215;-63
2024/01/14 16:11:25;;;;;;;49.50;16.93;;;;;;;1.38;63.36;99861.19;5018807;28;20213;-64
2024/01/14 16:13:55;;;;;;;53.03;16.50;;;;;;;1.14;63.89;99863.72;5020413;28;20205;-64
2024/01/14 16:16:26;;;;;;;43.20;16.57;;;;;;;1.02;64.41;99857.53;5020775;28;20328;-65
2024/01/14 16:19:00;;;;;;;53.60;18.00;;;;;;;1.01;64.54;99860.22;5019780;28;21026;-64
2024/01/14 16:21:29;;;;;;;49.40;16.13;;;;;;;0.91;64.84;99854.78;5023400;28;20212;-64
2024/01/14 16:24:03;;;;;;;46.63;16.20;;;;;;;0.89;64.92;99851.44;5021102;28;20225;-63
2024/01/14 16:26:37;;;;;;;53.93;16.80;;;;;;;1.06;64.73;99858.13;5020228;28;20213;-64
2024/01/14 16:29:08;;;;;;;50.00;16.27;;;;;;;1.15;64.65;99849.69;5019552;28;20208;-64
2024/01/14 16:31:37;;;;;;;47.53;15.43;;;;;;;1.27;64.36;99856.69;5018308;28;20204;-64
2024/01/14 16:34:05;;;;;;;56.97;17.93;;;;;;;1.42;64.29;99862.66;5023726;28;20667;-64
2024/01/14 16:36:37;;;;;;;52.57;17.30;;;;;;;1.52;63.92;99861.09;5021574;28;20223;-63
2024/01/14 16:39:07;;;;;;;40.33;13.70;;;;;;;1.63;63.78;99862.97;5018052;28;20213;-64
2024/01/14 16:41:40;;;;;;;37.97;13.03;;;;;;;1.70;63.68;99865.03;5021392;28;20205;-64
2024/01/14 16:44:10;;;;;;;36.73;11.80;;;;;;;1.74;63.33;99861.28;5016876;28;20221;-66
2024/01/14 16:46:40;;;;;;;36.37;12.50;;;;;;;1.77;63.33;99855.81;5016930;28;20239;-64
2024/01/14 16:49:12;;;;;;;40.57;13.80;;;;;;;1.78;63.17;99849.66;5019362;28;20220;-64
2024/01/14 16:51:41;;;;;;;35.77;13.50;;;;;;;1.75;62.95;99849.88;5019232;28;20304;-64
2024/01/14 16:54:13;;;;;;;38.47;12.97;;;;;;;1.68;63.22;99853.00;5017814;28;20259;-64
2024/01/14 16:56:43;;;;;;;45.43;15.40;;;;;;;1.63;63.50;99848.13;5017303;28;20666;-63
2024/01/14 16:59:13;;;;;;;49.07;15.73;;;;;;;1.63;63.56;99857.72;5017238;28;20650;-64
2024/01/14 17:01:42;;;;;;;47.10;15.00;;;;;;;1.63;63.48;99848.13;5018244;28;20247;-67
2024/01/14 17:04:14;;;;;;;48.50;16.77;;;;;;;1.63;63.48;99845.50;5020492;28;20546;-63
2024/01/14 17:06:45;;;;;;;52.13;16.50;;;;;;;1.53;63.42;99839.25;5022708;28;20217;-64
2024/01/14 17:09:20;;;;;;;45.13;14.57;;;;;;;1.56;63.38;99831.19;5017244;28;20232;-63
2024/01/14 17:11:53;;;;;;;50.00;15.33;;;;;;;1.52;63.37;99827.94;5014578;28;20205;-63
2024/01/14 17:14:29;;;;;;;48.13;15.70;;;;;;;1.54;63.83;99832.25;5019454;28;20213;-65
2024/01/14 17:16:58;;;;;;;44.30;15.80;;;;;;;1.47;64.01;99834.44;5019952;28;20217;-66
2024/01/14 17:19:27;;;;;;;48.60;16.27;;;;;;;1.40;64.00;99825.38;5017727;28;20232;-64
2024/01/14 17:21:55;;;;;;;48.77;16.67;;;;;;;1.31;64.43;99826.00;5019212;28;20292;-64
2024/01/14 17:24:23;;;;;;;53.90;16.13;;;;;;;1.30;64.33;99830.38;5015272;28;20259;-64
2024/01/14 17:26:53;;;;;;;46.97;16.53;;;;;;;1.20;63.99;99823.28;5018631;28;20232;-64
2024/01/14 17:29:21;;;;;;;49.67;16.87;;;;;;;1.15;64.29;99818.34;5019633;28;20244;-65
2024/01/14 17:31:50;;;;;;;48.97;16.57;;;;;;;1.22;64.17;99817.03;5020721;28;20213;-64
2024/01/14 17:34:18;;;;;;;54.80;16.77;;;;;;;1.23;63.88;99828.31;5021946;28;20204;-65
2024/01/14 17:36:47;;;;;;;52.30;17.27;;;;;;;1.21;63.82;99823.19;5017338;28;20236;-64
2024/01/14 17:39:16;;;;;;;54.50;16.97;;;;;;;1.23;63.77;99828.31;5018413;28;20786;-64
2024/01/14 17:41:44;;;;;;;59.87;17.43;;;;;;;1.18;63.80;99830.38;5018570;28;20208;-64
2024/01/14 17:44:20;;;;;;;52.20;16.27;;;;;;;1.21;63.67;99831.00;5018790;28;20310;-63
2024/01/14 17:46:49;;;;;;;48.30;16.17;;;;;;;1.18;63.73;99825.16;5020734;28;20235;-63
2024/01/14 17:49:17;;;;;;;55.20;17.93;;;;;;;1.21;63.67;99824.94;5016447;28;21628;-63
2024/01/14 17:51:45;;;;;;;56.50;17.43;;;;;;;1.17;63.63;99808.63;5019200;28;20232;-63
2024/01/14 17:54:14;;;;;;;53.13;16.30;;;;;;;1.19;63.67;99811.16;5017725;28;20245;-66
2024/01/14 17:56:42;;;;;;;58.93;17.93;;;;;;;1.23;63.62;99807.41;5020444;28;20231;-65
2024/01/14 17:59:11;;;;;;;50.87;18.83;;;;;;;1.23;63.27;99807.41;5022133;28;20209;-64
2024/01/14 18:01:44;;;;;;;58.67;18.77;;;;;;;1.19;63.16;99808.53;5021984;28;20255;-64
2024/01/14 18:04:13;;;;;;;56.13;18.77;;;;;;;1.20;63.11;99802.38;5020683;28;20208;-63
2024/01/14 18:06:41;;;;;;;56.87;19.20;;;;;;;1.19;63.06;99796.31;5021100;28;20240;-64
2024/01/14 18:09:11;;;;;;;55.73;18.70;;;;;;;1.10;62.80;99787.34;5017933;28;20287;-65
2024/01/14 18:11:42;;;;;;;68.30;19.07;;;;;;;1.04;63.12;99776.50;5017847;28;20198;-64
2024/01/14 18:14:17;;;;;;;61.83;20.60;;;;;;;0.99;63.21;99776.78;5019489;28;20240;-63
2024/01/14 18:16:48;;;;;;;60.53;19.93;;;;;;;0.99;63.34;99774.19;5018039;28;20551;-63
2024/01/14 18:19:21;;;;;;;65.10;21.03;;;;;;;0.98;63.36;99774.28;5019757;28;20200;-64
2024/01/14 18:22:23;;;;;;;62.60;20.13;;;;;;;0.92;63.66;99766.88;5017755;28;20211;-64
2024/01/14 18:24:52;;;;;;;61.40;19.87;;;;;;;0.99;63.34;99758.50;5015605;28;20228;-64
2024/01/14 18:27:20;;;;;;;60.30;20.03;;;;;;;1.02;63.37;99758.31;5019716;28;20236;-63
2024/01/14 18:29:50;;;;;;;55.50;19.30;;;;;;;1.02;63.50;99747.88;5021267;28;20216;-64
2024/01/14 18:32:23;;;;;;;61.80;20.37;;;;;;;1.02;63.27;99742.66;5017352;28;20213;-64
2024/01/14 18:34:56;;;;;;;62.50;21.30;;;;;;;1.04;63.22;99746.00;5016760;28;20210;-63
2024/01/14 18:37:28;;;;;;;63.50;21.93;;;;;;;0.99;63.08;99748.06;5014626;28;20212;-63
2024/01/14 18:39:57;;;;;;;63.23;22.50;;;;;;;0.96;63.35;99743.06;5018722;28;20283;-65
2024/01/14 18:42:26;;;;;;;65.03;20.40;;;;;;;0.99;63.24;99740.22;5019388;28;20213;-63
2024/01/14 18:44:54;;;;;;;55.23;20.37;;;;;;;0.99;63.25;99747.22;5015645;28;20219;-64
2024/01/14 18:47:29;;;;;;;60.83;20.57;;;;;;;1.01;63.06;99742.75;5015842;28;20247;-64
2024/01/14 18:49:57;;;;;;;63.57;19.13;;;;;;;1.01;63.08;99751.41;5015271;28;20210;-64
2024/01/14 18:52:31;;;;;;;65.00;20.13;;;;;;;1.03;63.07;99741.72;5017902;28;20212;-64
2024/01/14 18:54:59;;;;;;;58.10;19.13;;;;;;;0.93;62.84;99745.88;5015922;28;20259;-64
2024/01/14 18:57:30;;;;;;;60.40;19.53;;;;;;;0.84;63.29;99753.50;5018847;28;20703;-64
2024/01/14 19:00:00;;;;;;;57.17;19.13;;;;;;;0.87;63.48;99759.38;5018651;28;20734;-64
2024/01/14 19:02:30;;;;;;;53.07;18.63;;;;;;;0.90;63.47;99750.47;5015917;28;20209;-64
2024/01/14 19:05:13;;;;;;;55.27;19.13;;;;;;;0.90;63.12;99747.84;5021218;28;20220;-64
2024/01/14 19:07:45;;;;;;;59.87;19.37;;;;;;;0.95;63.05;99751.00;5021949;28;20209;-64
2024/01/14 19:10:14;;;;;;;60.93;20.17;;;;;;;0.91;62.92;99750.38;5020980;28;20295;-65
2024/01/14 19:12:43;;;;;;;68.30;22.23;;;;;;;0.91;63.14;99754.75;5022126;28;20204;-65
2024/01/14 19:15:13;;;;;;;61.40;20.63;;;;;;;0.82;63.35;99755.38;5024837;28;20204;-66
2024/01/14 19:17:43;;;;;;;66.83;22.57;;;;;;;0.84;63.37;99756.13;5021510;28;20835;-65
2024/01/14 19:20:17;;;;;;;64.07;21.43;;;;;;;0.93;63.22;99758.94;5024690;28;20209;-63
2024/01/14 19:22:46;;;;;;;62.90;20.63;;;;;;;0.96;62.64;99757.91;5024991;28;20745;-64
2024/01/14 19:25:15;;;;;;;57.23;20.40;;;;;;;0.95;62.33;99754.47;5021773;28;20212;-65
2024/01/14 19:27:44;;;;;;;63.57;21.03;;;;;;;0.91;62.36;99747.75;5024361;28;20231;-64
2024/01/14 19:30:16;;;;;;;70.80;21.03;;;;;;;0.92;62.01;99741.59;5020945;28;20209;-64
2024/01/14 19:32:53;;;;;;;58.27;19.87;;;;;;;0.89;61.80;99739.19;5022730;28;20216;-64
2024/01/14 19:35:22;;;;;;;63.30;21.17;;;;;;;0.90;61.39;99748.69;5025264;28;20330;-63
2024/01/14 19:37:51;;;;;;;59.90;21.17;;;;;;;0.84;61.37;99738.69;5021497;28;20204;-66
2024/01/14 19:40:19;;;;;;;60.13;21.23;;;;;;;0.87;61.58;99742.88;5022176;28;20212;-64
2024/01/14 19:42:47;;;;;;;66.73;21.57;;;;;;;0.83;61.03;99738.78;5023244;28;20215;-64
2024/01/14 19:45:19;;;;;;;56.13;21.50;;;;;;;0.71;60.91;99737.81;5023257;28;20272;-64
2024/01/14 19:47:52;;;;;;;63.17;20.53;;;;;;;0.68;60.87;99745.88;5022214;28;20229;-63
2024/01/14 19:50:27;;;;;;;63.73;22.20;;;;;;;0.73;61.18;99744.63;5018612;28;20692;-62
2024/01/14 19:53:00;;;;;;;62.77;21.03;;;;;;;0.69;61.02;99739.72;5020083;28;20296;-64
2024/01/14 19:55:32;;;;;;;54.10;20.47;;;;;;;0.66;60.89;99734.69;5019088;28;20238;-63
2024/01/14 19:58:02;;;;;;;58.03;20.63;;;;;;;0.62;60.89;99728.84;5020617;28;20219;-63
2024/01/14 20:00:39;;;;;;;54.07;20.37;;;;;;;0.62;61.16;99728.00;5019622;28;20236;-64
2024/01/14 20:03:11;;;;;;;61.63;21.23;;;;;;;0.63;60.89;99725.31;5018020;28;20209;-64
2024/01/14 20:05:49;;;;;;;61.67;21.00;;;;;;;0.67;60.77;99728.56;5018414;28;20228;-63
2024/01/14 20:08:18;;;;;;;68.20;22.87;;;;;;;0.63;60.87;99722.69;5018855;28;20651;-64
2024/01/14 20:10:49;;;;;;;59.23;20.47;;;;;;;0.64;60.78;99719.16;5021177;28;20956;-64
2024/01/14 20:13:17;;;;;;;53.13;18.27;;;;;;;0.63;60.64;99716.63;5022682;28;20205;-65
2024/01/14 20:15:49;;;;;;;54.97;19.07;;;;;;;0.60;61.14;99725.53;5017872;28;20208;-65